createdAt,value
2018-12-24T00:00:30.403Z,20.2
2018-12-24T00:01:19.904Z,20.2
2018-12-24T00:02:09.960Z,20.2
2018-12-24T00:03:00.280Z,20.2
2018-12-24T00:03:50.405Z,20.2
2018-12-24T00:04:39.845Z,20.2
2018-12-24T00:05:30.998Z,20.2
2018-12-24T00:06:19.993Z,20.2
2018-12-24T00:07:10.347Z,20.2
2018-12-24T00:08:00.962Z,20.2
2018-12-24T00:08:50.430Z,20.2
2018-12-24T00:09:41.031Z,20.2
2018-12-24T00:10:31.087Z,20.3
2018-12-24T00:11:20.868Z,20.2
2018-12-24T00:12:13.817Z,20.2
2018-12-24T00:13:01.282Z,20.3
2018-12-24T00:13:51.062Z,20.2
2018-12-24T00:14:41.104Z,20.3
2018-12-24T00:32:46.461Z,20.2
2018-12-24T00:33:35.714Z,20.3
2018-12-24T00:34:25.506Z,20.3
2018-12-24T00:35:15.854Z,20.3
2018-12-24T00:36:06.183Z,20.3
2018-12-24T00:36:55.961Z,20.3
2018-12-24T00:37:46.620Z,20.3
2018-12-24T00:38:35.280Z,20.2
2018-12-24T00:39:26.420Z,20.2
2018-12-24T00:40:16.698Z,20.2
2018-12-24T00:41:06.343Z,20.2
2018-12-24T00:41:56.292Z,20.2
2018-12-24T00:42:46.641Z,20.2
2018-12-24T00:43:36.953Z,20.3
2018-12-24T00:44:26.723Z,20.3
2018-12-24T00:45:16.582Z,20.2
2018-12-24T00:46:07.132Z,20.2
2018-12-24T00:46:56.352Z,20.3
2018-12-24T00:47:47.240Z,20.3
2018-12-24T00:48:37.330Z,20.3
2018-12-24T00:49:26.795Z,20.3
2018-12-24T00:50:17.445Z,20.2
2018-12-24T00:51:06.392Z,20.3
2018-12-24T00:51:55.880Z,20.3
2018-12-24T00:52:47.950Z,20.3
2018-12-24T00:53:37.353Z,20.3
2018-12-24T00:54:27.427Z,20.3
2018-12-24T00:55:16.445Z,20.3
2018-12-24T00:56:06.980Z,20.3
2018-12-24T00:56:57.597Z,20.3
2018-12-24T00:57:48.010Z,20.3
2018-12-24T00:58:37.152Z,20.3
2018-12-24T00:59:27.772Z,20.3
2018-12-24T01:00:18.093Z,20.3
2018-12-24T01:01:08.200Z,20.3
2018-12-24T01:01:58.060Z,20.3
2018-12-24T01:02:48.004Z,20.3
2018-12-24T01:03:38.352Z,20.2
2018-12-24T01:04:27.882Z,20.2
2018-12-24T01:05:18.177Z,20.2
2018-12-24T01:06:08.474Z,20.2
2018-12-24T01:06:57.714Z,20.2
2018-12-24T01:07:47.827Z,20.2
2018-12-24T01:08:39.007Z,20.2
2018-12-24T01:09:28.606Z,20.3
2018-12-24T01:10:18.604Z,20.2
2018-12-24T01:11:07.844Z,20.2
2018-12-24T01:11:59.999Z,20.3
2018-12-24T01:12:48.109Z,20.3
2018-12-24T01:13:37.926Z,20.3
2018-12-24T01:14:28.796Z,20.3
2018-12-24T01:15:19.176Z,20.3
2018-12-24T01:16:08.633Z,20.3
2018-12-24T01:16:59.296Z,20.3
2018-12-24T01:17:48.742Z,20.3
2018-12-24T01:18:38.841Z,20.3
2018-12-24T01:19:28.619Z,20.3
2018-12-24T01:20:18.998Z,20.3
2018-12-24T01:21:08.711Z,20.3
2018-12-24T01:21:59.841Z,20.3
2018-12-24T01:22:48.831Z,20.3
2018-12-24T01:23:38.825Z,20.3
2018-12-24T01:24:28.728Z,20.3
2018-12-24T01:25:19.350Z,20.2
2018-12-24T01:26:09.380Z,20.3
2018-12-24T01:26:59.165Z,20.3
2018-12-24T01:27:49.648Z,20.3
2018-12-24T01:28:39.007Z,20.3
2018-12-24T01:29:28.778Z,20.2
2018-12-24T01:30:20.183Z,20.3
2018-12-24T01:31:10.207Z,20.3
2018-12-24T01:31:59.710Z,20.3
2018-12-24T01:32:49.748Z,20.3
2018-12-24T01:33:39.078Z,20.3
2018-12-24T01:34:29.715Z,20.3
2018-12-24T01:35:20.210Z,20.3
2018-12-24T01:36:10.234Z,20.2
2018-12-24T01:37:01.886Z,20.2
2018-12-24T01:37:50.357Z,20.3
2018-12-24T01:38:40.594Z,20.3
2018-12-24T01:39:30.502Z,20.3
2018-12-24T01:40:20.283Z,20.3
2018-12-24T01:41:10.362Z,20.2
2018-12-24T01:42:00.160Z,20.3
2018-12-24T01:42:51.005Z,20.3
2018-12-24T01:43:40.501Z,20.3
2018-12-24T01:44:30.854Z,20.3
2018-12-24T01:45:20.690Z,20.3
2018-12-24T01:46:10.972Z,20.3
2018-12-24T01:47:00.466Z,20.3
2018-12-24T01:47:51.029Z,20.3
2018-12-24T01:48:41.425Z,20.3
2018-12-24T01:49:30.911Z,20.3
2018-12-24T01:50:20.963Z,20.3
2018-12-24T01:51:10.726Z,20.3
2018-12-24T01:52:01.086Z,20.3
2018-12-24T01:52:51.683Z,20.3
2018-12-24T01:53:41.697Z,20.3
2018-12-24T01:54:30.718Z,20.3
2018-12-24T01:55:21.040Z,20.3
2018-12-24T01:56:11.320Z,20.3
2018-12-24T01:57:00.905Z,20.3
2018-12-24T01:57:51.179Z,20.3
2018-12-24T01:58:41.030Z,20.3
2018-12-24T01:59:31.988Z,20.3
2018-12-24T02:00:22.019Z,20.3
2018-12-24T02:01:11.955Z,20.3
2018-12-24T02:02:01.845Z,20.3
2018-12-24T02:02:51.820Z,20.3
2018-12-24T02:03:42.672Z,20.3
2018-12-24T02:04:31.642Z,20.3
2018-12-24T02:05:21.713Z,20.3
2018-12-24T02:06:12.015Z,20.3
2018-12-24T02:07:02.380Z,20.3
2018-12-24T02:07:52.826Z,20.3
2018-12-24T02:08:42.525Z,20.3
2018-12-24T02:09:32.522Z,20.3
2018-12-24T02:10:22.045Z,20.3
2018-12-24T02:11:11.517Z,20.3
2018-12-24T02:12:03.080Z,20.3
2018-12-24T02:12:52.217Z,20.3
2018-12-24T02:13:42.554Z,20.3
2018-12-24T02:14:32.932Z,20.3
2018-12-24T02:15:22.697Z,20.3
2018-12-24T02:16:13.536Z,20.3
2018-12-24T02:17:02.807Z,20.3
2018-12-24T02:17:52.392Z,20.3
2018-12-24T02:18:42.850Z,20.3
2018-12-24T02:19:33.587Z,20.3
2018-12-24T02:20:22.276Z,20.3
2018-12-24T02:21:12.802Z,20.3
2018-12-24T02:22:03.398Z,20.3
2018-12-24T02:22:53.019Z,20.3
2018-12-24T02:23:43.223Z,20.3
2018-12-24T02:24:33.643Z,20.3
2018-12-24T02:25:23.084Z,20.3
2018-12-24T02:26:13.768Z,20.3
2018-12-24T02:27:03.449Z,20.3
2018-12-24T02:27:53.758Z,20.3
2018-12-24T02:28:43.858Z,20.3
2018-12-24T02:29:34.186Z,20.3
2018-12-24T02:30:24.463Z,20.3
2018-12-24T02:31:14.206Z,20.3
2018-12-24T02:32:04.273Z,20.3
2018-12-24T02:32:53.966Z,20.3
2018-12-24T02:33:44.262Z,20.3
2018-12-24T02:34:33.730Z,20.3
2018-12-24T02:35:24.222Z,20.3
2018-12-24T02:36:14.436Z,20.3
2018-12-24T02:37:04.506Z,20.3
2018-12-24T02:37:54.493Z,20.3
2018-12-24T02:38:44.370Z,20.3
2018-12-24T02:39:34.730Z,20.3
2018-12-24T02:40:24.709Z,20.3
2018-12-24T02:41:15.253Z,20.3
2018-12-24T02:42:04.698Z,20.3
2018-12-24T02:42:58.192Z,20.3
2018-12-24T02:43:44.103Z,20.3
2018-12-24T02:44:35.317Z,20.3
2018-12-24T02:45:24.260Z,20.3
2018-12-24T02:46:14.605Z,20.2
2018-12-24T02:47:05.183Z,20.3
2018-12-24T02:47:55.615Z,20.3
2018-12-24T02:48:45.005Z,20.2
2018-12-24T02:49:35.649Z,20.2
2018-12-24T02:50:25.689Z,20.3
2018-12-24T02:51:15.457Z,20.2
2018-12-24T02:52:05.403Z,20.3
2018-12-24T02:52:55.249Z,20.3
2018-12-24T02:53:45.750Z,20.3
2018-12-24T02:54:35.693Z,20.2
2018-12-24T02:55:25.451Z,20.3
2018-12-24T02:56:15.218Z,20.3
2018-12-24T02:57:05.422Z,20.2
2018-12-24T02:57:55.572Z,20.3
2018-12-24T02:58:45.965Z,20.3
2018-12-24T02:59:35.466Z,20.3
2018-12-24T03:00:26.520Z,20.3
2018-12-24T03:01:16.222Z,20.3
2018-12-24T03:02:05.969Z,20.3
2018-12-24T03:02:56.274Z,20.3
2018-12-24T03:03:45.283Z,20.3
2018-12-24T03:04:35.579Z,20.3
2018-12-24T03:05:25.631Z,20.3
2018-12-24T03:06:16.135Z,20.3
2018-12-24T03:07:05.837Z,20.3
2018-12-24T03:07:56.611Z,20.3
2018-12-24T03:08:47.048Z,20.3
2018-12-24T03:09:36.677Z,20.3
2018-12-24T03:10:26.399Z,20.3
2018-12-24T03:11:16.262Z,20.3
2018-12-24T03:12:06.377Z,20.3
2018-12-24T03:13:07.906Z,20.3
2018-12-24T03:13:45.666Z,20.3
2018-12-24T03:14:37.451Z,20.3
2018-12-24T03:15:27.338Z,20.3
2018-12-24T03:16:17.251Z,20.3
2018-12-24T03:17:06.711Z,20.3
2018-12-24T03:17:56.936Z,20.2
2018-12-24T03:18:47.021Z,20.3
2018-12-24T03:19:36.921Z,20.2
2018-12-24T03:20:26.994Z,20.3
2018-12-24T03:21:16.555Z,20.2
2018-12-24T03:22:06.559Z,20.3
2018-12-24T03:22:57.093Z,20.3
2018-12-24T03:23:47.725Z,20.2
2018-12-24T03:24:37.245Z,20.3
2018-12-24T03:25:27.023Z,20.3
2018-12-24T03:26:17.623Z,20.3
2018-12-24T03:27:07.154Z,20.3
2018-12-24T03:27:57.700Z,20.3
2018-12-24T03:28:48.545Z,20.3
2018-12-24T03:29:37.782Z,20.3
2018-12-24T03:30:28.675Z,20.3
2018-12-24T03:31:18.210Z,20.3
2018-12-24T03:32:08.074Z,20.3
2018-12-24T03:32:57.929Z,20.3
2018-12-24T03:33:48.061Z,20.3
2018-12-24T03:34:38.228Z,20.3
2018-12-24T03:35:28.515Z,20.3
2018-12-24T03:36:18.256Z,20.3
2018-12-24T03:37:08.663Z,20.3
2018-12-24T03:37:58.568Z,20.3
2018-12-24T03:38:49.044Z,20.3
2018-12-24T03:39:38.295Z,20.3
2018-12-24T03:40:28.910Z,20.3
2018-12-24T03:41:18.537Z,20.3
2018-12-24T03:42:08.069Z,20.3
2018-12-24T03:42:59.262Z,20.3
2018-12-24T03:43:48.612Z,20.3
2018-12-24T03:44:39.320Z,20.3
2018-12-24T03:45:29.146Z,20.3
2018-12-24T03:46:19.452Z,20.3
2018-12-24T03:47:08.927Z,20.3
2018-12-24T03:47:59.334Z,20.3
2018-12-24T03:48:47.937Z,20.3
2018-12-24T03:49:38.839Z,20.3
2018-12-24T03:50:28.599Z,20.3
2018-12-24T03:51:19.291Z,20.3
2018-12-24T03:52:10.029Z,20.3
2018-12-24T03:52:59.451Z,20.3
2018-12-24T03:53:49.717Z,20.3
2018-12-24T03:54:39.474Z,20.3
2018-12-24T03:55:29.569Z,20.3
2018-12-24T03:56:19.814Z,20.3
2018-12-24T03:57:10.185Z,20.3
2018-12-24T03:58:00.240Z,20.3
2018-12-24T03:58:50.007Z,20.3
2018-12-24T03:59:40.075Z,20.3
2018-12-24T04:00:30.432Z,20.3
2018-12-24T04:01:19.964Z,20.3
2018-12-24T04:02:10.044Z,20.3
2018-12-24T04:03:00.018Z,20.3
2018-12-24T04:03:50.819Z,20.3
2018-12-24T04:04:39.708Z,20.3
2018-12-24T04:05:29.641Z,20.3
2018-12-24T04:06:20.582Z,20.3
2018-12-24T04:07:10.589Z,20.3
2018-12-24T04:08:00.486Z,20.3
2018-12-24T04:08:50.425Z,20.3
2018-12-24T04:09:40.998Z,20.3
2018-12-24T04:10:30.541Z,20.3
2018-12-24T04:11:20.718Z,20.3
2018-12-24T04:12:10.808Z,20.3
2018-12-24T04:13:01.262Z,20.3
2018-12-24T04:13:50.776Z,20.3
2018-12-24T04:14:40.465Z,20.3
2018-12-24T04:15:30.958Z,20.3
2018-12-24T04:16:21.001Z,20.3
2018-12-24T04:17:10.020Z,20.3
2018-12-24T04:18:01.148Z,20.3
2018-12-24T04:18:50.921Z,20.3
2018-12-24T04:19:39.894Z,20.3
2018-12-24T04:20:30.732Z,20.3
2018-12-24T04:21:23.837Z,20.3
2018-12-24T04:22:11.414Z,20.3
2018-12-24T04:23:00.932Z,20.3
2018-12-24T04:23:51.162Z,20.3
2018-12-24T04:24:41.324Z,20.3
2018-12-24T04:25:32.291Z,20.3
2018-12-24T04:26:21.723Z,20.3
2018-12-24T04:27:11.148Z,20.2
2018-12-24T04:28:01.746Z,20.3
2018-12-24T04:28:51.778Z,20.3
2018-12-24T04:29:41.854Z,20.2
2018-12-24T04:30:33.929Z,20.2
2018-12-24T04:31:22.387Z,20.2
2018-12-24T04:32:12.006Z,20.2
2018-12-24T04:33:02.136Z,20.2
2018-12-24T04:33:52.495Z,20.2
2018-12-24T04:34:42.500Z,20.2
2018-12-24T04:35:32.874Z,20.3
2018-12-24T04:36:22.284Z,20.3
2018-12-24T04:37:11.822Z,20.3
2018-12-24T04:38:02.429Z,20.3
2018-12-24T04:38:53.073Z,20.3
2018-12-24T04:39:43.086Z,20.3
2018-12-24T04:40:32.664Z,20.3
2018-12-24T04:41:23.236Z,20.3
2018-12-24T04:42:12.140Z,20.3
2018-12-24T04:43:02.502Z,20.3
2018-12-24T04:43:52.841Z,20.3
2018-12-24T04:44:43.458Z,20.3
2018-12-24T05:02:02.965Z,20.2
2018-12-24T05:02:53.005Z,20.2
2018-12-24T05:03:43.089Z,20.2
2018-12-24T05:04:32.578Z,20.2
2018-12-24T05:05:22.649Z,20.2
2018-12-24T05:06:13.291Z,20.2
2018-12-24T05:07:04.245Z,20.2
2018-12-24T05:07:53.538Z,20.2
2018-12-24T05:08:43.587Z,20.2
2018-12-24T05:09:33.087Z,20.2
2018-12-24T05:10:22.982Z,20.2
2018-12-24T05:11:13.456Z,20.2
2018-12-24T05:12:04.190Z,20.2
2018-12-24T05:12:54.429Z,20.2
2018-12-24T05:13:46.704Z,20.2
2018-12-24T05:14:34.364Z,20.2
2018-12-24T05:15:24.416Z,20.2
2018-12-24T05:16:14.352Z,20.2
2018-12-24T05:17:04.994Z,20.2
2018-12-24T05:17:53.651Z,20.2
2018-12-24T05:18:44.541Z,20.2
2018-12-24T05:19:34.309Z,20.2
2018-12-24T05:20:24.369Z,20.2
2018-12-24T05:21:14.716Z,20.2
2018-12-24T05:22:04.826Z,20.3
2018-12-24T05:22:54.543Z,20.2
2018-12-24T05:23:44.603Z,20.3
2018-12-24T05:24:34.923Z,20.2
2018-12-24T05:25:24.270Z,20.3
2018-12-24T05:26:15.043Z,20.3
2018-12-24T05:27:05.373Z,20.2
2018-12-24T05:27:54.595Z,20.2
2018-12-24T05:28:45.359Z,20.3
2018-12-24T05:29:35.279Z,20.2
2018-12-24T05:30:25.321Z,20.2
2018-12-24T05:31:15.428Z,20.3
2018-12-24T05:32:05.383Z,20.2
2018-12-24T05:32:54.968Z,20.2
2018-12-24T05:33:45.573Z,20.3
2018-12-24T05:34:35.344Z,20.3
2018-12-24T05:35:24.853Z,20.3
2018-12-24T05:36:14.733Z,20.2
2018-12-24T05:37:06.053Z,20.3
2018-12-24T05:37:55.813Z,20.3
2018-12-24T05:38:45.350Z,20.3
2018-12-24T05:39:35.115Z,20.3
2018-12-24T05:40:25.240Z,20.3
2018-12-24T05:41:15.768Z,20.3
2018-12-24T05:42:05.575Z,20.3
2018-12-24T05:42:55.387Z,20.3
2018-12-24T05:43:54.033Z,20.3
2018-12-24T05:44:36.007Z,20.3
2018-12-24T05:45:26.110Z,20.3
2018-12-24T05:46:15.610Z,20.3
2018-12-24T05:47:05.647Z,20.3
2018-12-24T05:47:56.531Z,20.3
2018-12-24T05:48:46.682Z,20.3
2018-12-24T05:49:36.942Z,20.3
2018-12-24T05:50:27.280Z,20.3
2018-12-24T05:51:15.909Z,20.3
2018-12-24T05:52:06.447Z,20.3
2018-12-24T05:52:56.597Z,20.3
2018-12-24T05:53:46.922Z,20.3
2018-12-24T05:54:36.714Z,20.3
2018-12-24T05:55:27.298Z,20.3
2018-12-24T05:56:17.352Z,20.3
2018-12-24T05:57:07.428Z,20.3
2018-12-24T05:57:57.232Z,20.3
2018-12-24T05:58:47.257Z,20.3
2018-12-24T05:59:36.751Z,20.3
2018-12-24T06:00:27.675Z,20.3
2018-12-24T06:01:17.416Z,20.3
2018-12-24T06:02:07.492Z,20.3
2018-12-24T06:02:57.892Z,20.3
2018-12-24T06:03:47.849Z,20.3
2018-12-24T06:04:37.479Z,20.3
2018-12-24T06:05:27.718Z,20.3
2018-12-24T06:06:17.759Z,20.3
2018-12-24T06:07:07.819Z,20.3
2018-12-24T06:07:57.881Z,20.3
2018-12-24T06:08:47.919Z,20.3
2018-12-24T06:09:37.409Z,20.3
2018-12-24T06:10:27.331Z,20.3
2018-12-24T06:11:18.084Z,20.3
2018-12-24T06:12:08.431Z,20.3
2018-12-24T06:12:58.168Z,20.3
2018-12-24T06:13:48.536Z,20.3
2018-12-24T06:14:38.586Z,20.3
2018-12-24T06:15:27.892Z,20.3
2018-12-24T06:16:17.796Z,20.3
2018-12-24T06:17:07.731Z,20.3
2018-12-24T06:18:00.955Z,20.3
2018-12-24T06:18:49.131Z,20.3
2018-12-24T06:19:38.734Z,20.3
2018-12-24T06:20:28.180Z,20.3
2018-12-24T06:21:17.666Z,20.3
2018-12-24T06:22:08.553Z,20.3
2018-12-24T06:22:59.264Z,20.3
2018-12-24T06:23:49.000Z,20.3
2018-12-24T06:24:38.438Z,20.3
2018-12-24T06:25:29.413Z,20.3
2018-12-24T06:26:18.828Z,20.3
2018-12-24T06:27:09.281Z,20.3
2018-12-24T06:27:58.688Z,20.3
2018-12-24T06:28:49.095Z,20.3
2018-12-24T06:29:39.327Z,20.3
2018-12-24T06:30:29.675Z,20.2
2018-12-24T06:31:18.715Z,20.3
2018-12-24T06:32:08.705Z,20.3
2018-12-24T06:32:59.568Z,20.3
2018-12-24T06:33:49.470Z,20.3
2018-12-24T06:34:38.637Z,20.3
2018-12-24T06:35:29.995Z,20.3
2018-12-24T06:36:19.311Z,20.3
2018-12-24T06:37:09.391Z,20.3
2018-12-24T06:38:00.180Z,20.3
2018-12-24T06:38:50.549Z,20.3
2018-12-24T06:39:39.724Z,20.3
2018-12-24T06:40:28.979Z,20.3
2018-12-24T06:41:20.112Z,20.3
2018-12-24T06:42:09.852Z,20.3
2018-12-24T06:42:59.509Z,20.3
2018-12-24T06:43:51.067Z,20.3
2018-12-24T06:44:40.452Z,20.3
2018-12-24T06:45:30.224Z,20.3
2018-12-24T06:46:19.524Z,20.3
2018-12-24T06:47:10.057Z,20.3
2018-12-24T06:48:00.039Z,20.3
2018-12-24T06:48:50.681Z,20.3
2018-12-24T06:49:40.506Z,20.3
2018-12-24T06:50:30.744Z,20.3
2018-12-24T06:51:20.907Z,20.3
2018-12-24T06:52:10.834Z,20.3
2018-12-24T06:53:00.619Z,20.4
2018-12-24T06:53:50.158Z,20.4
2018-12-24T06:54:40.471Z,20.4
2018-12-24T06:55:30.787Z,20.4
2018-12-24T06:56:20.849Z,20.3
2018-12-24T06:57:10.904Z,20.4
2018-12-24T06:58:00.970Z,20.4
2018-12-24T06:58:51.642Z,20.4
2018-12-24T06:59:42.017Z,20.4
2018-12-24T07:00:31.446Z,20.4
2018-12-24T07:01:20.750Z,20.4
2018-12-24T07:02:11.249Z,20.4
2018-12-24T07:03:00.769Z,20.4
2018-12-24T07:03:51.077Z,20.4
2018-12-24T07:04:41.692Z,20.4
2018-12-24T07:05:32.087Z,20.4
2018-12-24T07:06:21.382Z,20.4
2018-12-24T07:07:11.319Z,20.4
2018-12-24T07:08:01.679Z,20.4
2018-12-24T07:08:52.216Z,20.4
2018-12-24T07:09:42.094Z,20.4
2018-12-24T07:10:32.345Z,20.4
2018-12-24T07:11:21.599Z,20.4
2018-12-24T07:12:11.651Z,20.4
2018-12-24T07:13:01.434Z,20.4
2018-12-24T07:13:52.037Z,20.4
2018-12-24T07:14:42.621Z,20.4
2018-12-24T07:15:32.171Z,20.4
2018-12-24T07:16:22.189Z,20.4
2018-12-24T07:17:12.808Z,20.4
2018-12-24T07:18:02.153Z,20.4
2018-12-24T07:18:52.726Z,20.4
2018-12-24T07:19:42.736Z,20.4
2018-12-24T07:20:31.969Z,20.4
2018-12-24T07:21:22.558Z,20.4
2018-12-24T07:22:12.069Z,20.4
2018-12-24T07:23:02.356Z,20.4
2018-12-24T07:23:52.968Z,20.4
2018-12-24T07:24:43.068Z,20.4
2018-12-24T07:25:32.551Z,20.4
2018-12-24T07:26:23.281Z,20.4
2018-12-24T07:27:13.218Z,20.4
2018-12-24T07:28:03.789Z,20.4
2018-12-24T07:29:01.108Z,20.4
2018-12-24T07:29:42.538Z,20.4
2018-12-24T07:30:32.895Z,20.4
2018-12-24T07:31:23.986Z,20.4
2018-12-24T07:32:13.326Z,20.4
2018-12-24T07:33:03.810Z,20.4
2018-12-24T07:33:53.955Z,20.4
2018-12-24T07:34:43.952Z,20.4
2018-12-24T07:35:33.902Z,20.4
2018-12-24T07:36:23.670Z,20.4
2018-12-24T07:37:14.162Z,20.4
2018-12-24T07:38:05.755Z,20.4
2018-12-24T07:38:53.211Z,20.5
2018-12-24T07:39:43.795Z,20.5
2018-12-24T07:40:34.205Z,20.5
2018-12-24T07:41:23.599Z,20.5
2018-12-24T07:42:14.498Z,20.5
2018-12-24T07:43:04.140Z,20.5
2018-12-24T07:43:54.352Z,20.5
2018-12-24T07:44:44.381Z,20.5
2018-12-24T07:45:34.494Z,20.5
2018-12-24T07:46:24.857Z,20.5
2018-12-24T07:47:14.299Z,20.5
2018-12-24T07:48:04.409Z,20.5
2018-12-24T07:48:54.687Z,20.5
2018-12-24T07:49:44.739Z,20.5
2018-12-24T07:50:35.387Z,20.5
2018-12-24T07:51:24.209Z,20.5
2018-12-24T07:52:13.624Z,20.5
2018-12-24T07:53:04.594Z,20.5
2018-12-24T07:53:55.031Z,20.5
2018-12-24T07:54:45.056Z,20.5
2018-12-24T07:55:35.481Z,20.5
2018-12-24T07:56:24.926Z,20.5
2018-12-24T07:57:15.261Z,20.5
2018-12-24T07:58:05.316Z,20.5
2018-12-24T07:58:55.731Z,20.5
2018-12-24T07:59:45.413Z,20.5
2018-12-24T08:00:35.216Z,20.5
2018-12-24T08:01:25.628Z,20.5
2018-12-24T08:02:15.599Z,20.5
2018-12-24T08:03:05.385Z,20.5
2018-12-24T08:03:55.540Z,20.6
2018-12-24T08:04:45.578Z,20.6
2018-12-24T08:05:35.549Z,20.5
2018-12-24T08:06:25.936Z,20.5
2018-12-24T08:07:15.958Z,20.5
2018-12-24T08:08:05.237Z,20.6
2018-12-24T08:08:55.768Z,20.6
2018-12-24T08:09:45.415Z,20.6
2018-12-24T08:10:36.160Z,20.6
2018-12-24T08:11:25.675Z,20.6
2018-12-24T08:12:18.128Z,20.6
2018-12-24T08:13:06.634Z,20.6
2018-12-24T08:13:56.684Z,20.6
2018-12-24T08:14:46.493Z,20.6
2018-12-24T08:15:35.951Z,20.6
2018-12-24T08:16:26.847Z,20.6
2018-12-24T08:17:15.782Z,20.6
2018-12-24T08:18:06.674Z,20.6
2018-12-24T08:18:56.492Z,20.6
2018-12-24T08:19:45.370Z,20.6
2018-12-24T08:20:36.885Z,20.6
2018-12-24T08:21:26.332Z,20.6
2018-12-24T08:22:16.687Z,20.6
2018-12-24T08:23:06.734Z,20.6
2018-12-24T08:23:56.492Z,20.6
2018-12-24T08:24:46.574Z,20.6
2018-12-24T08:25:36.981Z,20.6
2018-12-24T08:26:26.679Z,20.6
2018-12-24T08:27:17.036Z,20.6
2018-12-24T08:28:07.076Z,20.6
2018-12-24T08:28:57.681Z,20.6
2018-12-24T08:29:47.484Z,20.6
2018-12-24T08:30:36.731Z,20.6
2018-12-24T08:31:27.054Z,20.6
2018-12-24T08:32:17.582Z,20.6
2018-12-24T08:33:07.419Z,20.6
2018-12-24T08:33:57.096Z,20.6
2018-12-24T08:34:47.801Z,20.6
2018-12-24T08:35:38.251Z,20.6
2018-12-24T08:36:27.182Z,20.6
2018-12-24T08:37:17.477Z,20.6
2018-12-24T08:38:07.309Z,20.6
2018-12-24T08:38:58.088Z,20.6
2018-12-24T08:39:48.142Z,20.6
2018-12-24T08:40:37.913Z,20.6
2018-12-24T08:41:28.226Z,20.6
2018-12-24T08:42:17.855Z,20.6
2018-12-24T08:43:07.818Z,20.6
2018-12-24T08:43:57.583Z,20.6
2018-12-24T08:44:48.416Z,20.6
2018-12-24T08:45:37.996Z,20.6
2018-12-24T08:46:27.863Z,20.6
2018-12-24T08:47:19.020Z,20.6
2018-12-24T08:48:08.035Z,20.6
2018-12-24T08:48:58.460Z,20.6
2018-12-24T08:49:48.543Z,20.6
2018-12-24T08:50:38.581Z,20.6
2018-12-24T08:51:29.299Z,20.6
2018-12-24T08:52:19.004Z,20.6
2018-12-24T08:53:09.084Z,20.6
2018-12-24T08:53:58.836Z,20.6
2018-12-24T08:54:48.893Z,20.6
2018-12-24T08:55:39.526Z,20.6
2018-12-24T08:56:31.403Z,20.6
2018-12-24T08:57:19.884Z,20.6
2018-12-24T08:58:09.381Z,20.6
2018-12-24T08:58:59.176Z,20.6
2018-12-24T08:59:49.224Z,20.6
2018-12-24T09:00:39.566Z,20.6
2018-12-24T09:16:31.573Z,20.6
2018-12-24T09:17:21.108Z,20.6
2018-12-24T09:18:11.735Z,20.6
2018-12-24T09:19:01.226Z,20.6
2018-12-24T09:19:51.272Z,20.6
2018-12-24T09:20:41.638Z,20.6
2018-12-24T09:21:31.730Z,20.6
2018-12-24T09:22:21.470Z,20.6
2018-12-24T09:23:11.771Z,20.6
2018-12-24T09:24:02.070Z,20.6
2018-12-24T09:24:51.335Z,20.6
2018-12-24T09:25:41.382Z,20.6
2018-12-24T09:26:31.725Z,20.6
2018-12-24T09:27:21.769Z,20.6
2018-12-24T09:28:11.559Z,20.6
2018-12-24T09:29:02.630Z,20.7
2018-12-24T09:29:51.775Z,20.7
2018-12-24T09:30:42.661Z,20.7
2018-12-24T09:31:32.362Z,20.7
2018-12-24T09:32:21.604Z,20.7
2018-12-24T09:33:12.177Z,20.7
2018-12-24T09:34:01.676Z,20.7
2018-12-24T09:34:51.727Z,20.7
2018-12-24T09:35:42.199Z,20.7
2018-12-24T09:36:32.199Z,20.7
2018-12-24T09:37:22.744Z,20.7
2018-12-24T09:38:13.204Z,20.7
2018-12-24T09:39:02.297Z,20.7
2018-12-24T09:39:52.347Z,20.7
2018-12-24T09:40:42.683Z,20.7
2018-12-24T09:41:33.138Z,20.7
2018-12-24T09:42:23.670Z,20.8
2018-12-24T09:43:12.873Z,20.8
2018-12-24T09:44:02.955Z,20.8
2018-12-24T09:45:01.777Z,20.8
2018-12-24T09:45:43.108Z,20.8
2018-12-24T09:46:33.127Z,20.8
2018-12-24T09:47:23.183Z,20.8
2018-12-24T09:48:13.568Z,20.8
2018-12-24T09:49:02.520Z,20.8
2018-12-24T09:49:53.322Z,20.8
2018-12-24T09:50:43.913Z,20.8
2018-12-24T09:51:33.510Z,20.8
2018-12-24T09:52:23.585Z,20.8
2018-12-24T09:53:14.234Z,20.8
2018-12-24T09:54:03.883Z,20.7
2018-12-24T09:54:53.395Z,20.7
2018-12-24T09:55:44.058Z,20.7
2018-12-24T09:56:33.837Z,20.7
2018-12-24T09:57:24.382Z,20.7
2018-12-24T09:58:14.162Z,20.7
2018-12-24T09:59:04.237Z,20.7
2018-12-24T09:59:54.111Z,20.7
2018-12-24T10:00:44.097Z,20.7
2018-12-24T10:01:34.567Z,20.7
2018-12-24T10:02:23.462Z,20.7
2018-12-24T10:03:14.617Z,20.7
2018-12-24T10:04:09.392Z,20.7
2018-12-24T10:04:53.871Z,20.7
2018-12-24T10:05:44.997Z,20.7
2018-12-24T10:06:34.456Z,20.7
2018-12-24T10:07:24.256Z,20.7
2018-12-24T10:08:14.084Z,20.8
2018-12-24T10:09:04.632Z,20.8
2018-12-24T10:09:54.696Z,20.8
2018-12-24T10:10:45.094Z,20.8
2018-12-24T10:11:34.599Z,20.8
2018-12-24T10:12:25.386Z,20.8
2018-12-24T10:13:15.171Z,20.7
2018-12-24T10:14:05.529Z,20.8
2018-12-24T10:14:55.378Z,20.8
2018-12-24T10:15:47.318Z,20.8
2018-12-24T10:16:35.148Z,20.8
2018-12-24T10:17:25.273Z,20.8
2018-12-24T10:18:15.263Z,20.8
2018-12-24T10:19:05.590Z,20.8
2018-12-24T10:19:55.708Z,20.8
2018-12-24T10:20:45.434Z,20.8
2018-12-24T10:21:36.138Z,20.8
2018-12-24T10:22:25.801Z,20.8
2018-12-24T10:23:16.258Z,20.8
2018-12-24T10:24:05.692Z,20.8
2018-12-24T10:24:55.423Z,20.8
2018-12-24T10:25:46.298Z,20.8
2018-12-24T10:26:35.620Z,20.8
2018-12-24T10:27:26.150Z,20.8
2018-12-24T10:28:16.025Z,20.8
2018-12-24T10:29:05.717Z,20.8
2018-12-24T10:29:56.332Z,20.8
2018-12-24T10:30:46.061Z,20.8
2018-12-24T10:31:36.720Z,20.8
2018-12-24T10:32:26.010Z,20.8
2018-12-24T10:33:17.337Z,20.8
2018-12-24T10:34:06.597Z,20.8
2018-12-24T10:34:55.661Z,20.8
2018-12-24T10:35:46.503Z,20.8
2018-12-24T10:36:36.342Z,20.8
2018-12-24T10:37:26.607Z,20.8
2018-12-24T10:38:17.879Z,20.8
2018-12-24T10:39:07.199Z,20.8
2018-12-24T10:39:56.509Z,20.8
2018-12-24T10:40:46.760Z,20.8
2018-12-24T10:41:36.966Z,20.8
2018-12-24T10:42:27.184Z,20.8
2018-12-24T10:43:16.701Z,20.8
2018-12-24T10:44:06.999Z,20.8
2018-12-24T10:44:57.356Z,20.8
2018-12-24T10:45:47.114Z,20.8
2018-12-24T10:46:36.416Z,20.8
2018-12-24T10:47:26.377Z,20.8
2018-12-24T10:48:17.954Z,20.8
2018-12-24T10:49:07.661Z,20.8
2018-12-24T10:49:56.831Z,20.8
2018-12-24T10:50:47.709Z,20.8
2018-12-24T10:51:37.238Z,20.8
2018-12-24T10:52:27.573Z,20.8
2018-12-24T10:53:16.495Z,20.8
2018-12-24T10:54:06.643Z,20.8
2018-12-24T10:54:56.956Z,20.8
2018-12-24T10:55:47.835Z,20.8
2018-12-24T10:56:37.451Z,20.8
2018-12-24T10:57:27.991Z,20.9
2018-12-24T10:58:18.020Z,20.9
2018-12-24T10:59:08.248Z,20.9
2018-12-24T10:59:57.863Z,20.9
2018-12-24T11:00:46.815Z,20.9
2018-12-24T11:01:38.263Z,20.9
2018-12-24T11:02:28.321Z,20.9
2018-12-24T11:03:18.095Z,20.9
2018-12-24T11:04:08.470Z,20.9
2018-12-24T11:04:58.158Z,20.9
2018-12-24T11:05:48.255Z,20.9
2018-12-24T11:06:38.051Z,20.9
2018-12-24T11:07:28.662Z,21
2018-12-24T11:08:17.755Z,21
2018-12-24T11:09:07.463Z,21
2018-12-24T11:09:58.545Z,21
2018-12-24T11:10:50.855Z,21
2018-12-24T11:11:38.370Z,21
2018-12-24T11:12:29.092Z,21.1
2018-12-24T11:13:19.099Z,21.1
2018-12-24T11:14:08.832Z,21.1
2018-12-24T11:14:58.295Z,21.1
2018-12-24T11:15:48.767Z,21.1
2018-12-24T11:16:38.987Z,21.1
2018-12-24T11:17:29.315Z,21.1
2018-12-24T11:18:18.622Z,21.1
2018-12-24T11:19:09.179Z,21.1
2018-12-24T11:20:00.365Z,21.1
2018-12-24T11:29:10.114Z,21.2
2018-12-24T11:30:00.506Z,21.2
2018-12-24T11:30:49.395Z,21.2
2018-12-24T11:31:40.026Z,21.2
2018-12-24T11:32:29.339Z,21.2
2018-12-24T11:33:20.486Z,21.2
2018-12-24T11:34:09.633Z,21.2
2018-12-24T11:35:00.311Z,21.2
2018-12-24T11:35:50.324Z,21.2
2018-12-24T11:36:40.100Z,21.2
2018-12-24T11:37:30.901Z,21.2
2018-12-24T11:38:20.453Z,21.3
2018-12-24T11:39:10.233Z,21.2
2018-12-24T11:39:59.774Z,21.2
2018-12-24T11:40:50.630Z,21.3
2018-12-24T11:41:40.705Z,21.2
2018-12-24T11:42:32.613Z,21.2
2018-12-24T11:43:20.355Z,21.2
2018-12-24T11:44:10.800Z,21.2
2018-12-24T11:45:00.360Z,21.2
2018-12-24T11:45:50.197Z,21.2
2018-12-24T11:46:41.548Z,21.2
2018-12-24T11:47:31.917Z,21.2
2018-12-24T11:48:20.972Z,21.2
2018-12-24T11:49:10.897Z,21.2
2018-12-24T11:50:01.260Z,21.2
2018-12-24T11:50:51.335Z,21.2
2018-12-24T11:51:41.302Z,21.2
2018-12-24T11:52:30.982Z,21.2
2018-12-24T11:53:22.342Z,21.2
2018-12-24T11:54:11.797Z,21.2
2018-12-24T11:55:02.118Z,21.2
2018-12-24T11:55:51.705Z,21.2
2018-12-24T11:56:41.727Z,21.2
2018-12-24T11:57:32.380Z,21.2
2018-12-24T11:58:23.632Z,21.2
2018-12-24T11:59:11.717Z,21.2
2018-12-24T12:00:02.469Z,21.2
2018-12-24T12:00:52.172Z,21.2
2018-12-24T12:01:42.519Z,21.2
2018-12-24T12:02:31.279Z,21.2
2018-12-24T12:03:22.117Z,21.2